Terminal Aerodrome Forecast
Issued by NWS

Home | Current Version | Previous Version | Text Only | Print | Product List | Glossary On
Versions: 1 2 3 4 5 6 7 8 9 10 11 12 13 14 15 16 17 18 19 20 21 22 23 24 25 26 27 28 29 30 31 32
000
FTUS42 KRAH 011133
TAFINT
TAF
KINT 011133Z 0112/0212 04007KT 5SM -RA BR SCT008 BKN040 OVC060
      TEMPO 0112/0115 2SM SHRA BR BKN015
     FM011500 05008G15KT P6SM VCSH SCT020 OVC060
     FM012100 05007KT 3SM BR VCSH OVC020
     FM020100 04006KT 1 1/2SM BR OVC003=

USA.gov is the U.S. government's official web portal to all federal, state and local government web resources and services.